Terminal Aerodrome Forecast
Issued by NWS

Home | Current Version | Previous Version | Text Only | Print | Product List | Glossary On
Versions: 1 2 3 4 5 6 7 8 9 10 11 12 13 14 15 16 17 18
000
FTUS46 KMTR 011700
TAFSJC
TAF
KSJC 011722Z 0118/0218 19003KT P6SM FEW200
     FM012000 31006KT P6SM FEW035
     FM012300 30010KT P6SM SCT035 SCT200
     FM020400 VRB03KT P6SM FEW030 SCT120
     FM021000 15005KT P6SM BKN100=

USA.gov is the U.S. government's official web portal to all federal, state and local government web resources and services.